Abbotsford, WI (54405)

5:40 AM CDT on September 30, 2014 (GMT -0500)
Taylor County | Change Station
CLOSE
Current Station
Airport
Location: Medford,
Elevation: 1470 ft
Nearby Weather Stations

Elev 1470 ft 45.10 °N, 90.30 °W | Updated 25 minutes ago

Overcast
Overcast
37 °F
Feels Like 32 °F
N
6
Wind Variable Wind from NE

Today
High -- | Low -- °F
--% Chance of Precip.
Yesterday
High -- | Low -- °F
Precip. -- in
6:58 AM 6:43 PM
Waxing Crescent, 35% visible
Pressure 30.12 in
Visibility 10.0 miles
Clouds Overcast 800 ft
Windchill 32 °F
Dew Point 35 °F
Humidity 92%
Rainfall 0.00 in
Snow Depth Not available.
UV 0 out of 12
Pollen 1.90 out of 12
Air Quality Not available.
Flu Activity Not available.
METAR KMDZ 301015Z AUTO 04005KT 10SM OVC008 03/02 A3012 RMK AO2 T00280016

More Conditions Fewer Conditions

Pressure 30.12 in
Visibility 10.0 miles
Clouds Overcast 800 ft
Windchill 32 °F
Dew Point 35 °F
Humidity 92%
Rainfall 0.00 in
Snow Depth Not available.
UV 0 out of 12
Pollen 1.90 out of 12
Air Quality Not available.
Flu Activity Not available.
METAR KMDZ 301015Z AUTO 04005KT 10SM OVC008 03/02 A3012 RMK AO2 T00280016

More Conditions Fewer Conditions

10-Day Weather Forecast

Almanac

Astronomy

Sep. 30, 2014 Rise Set
Actual Time 6:58 AM CDT 6:43 PM CDT
Civil Twilight 6:28 AM CDT 7:12 PM CDT
Nautical Twilight 5:54 AM CDT 7:46 PM CDT
Astronomical Twilight 5:20 AM CDT 8:21 PM CDT
Moon 1:18 PM CDT 11:02 PM CDT
Length of Visible Light 12h 43m
Length of Day
11h 45m
Tomorrow will be 3m 5s shorter.
Waxing Crescent, 35% of the Moon is Illuminated
Today
Waxing Crescent
Oct 1
First Quarter
Oct 8
Full
Oct 15
Last Quarter
Oct 23
New

Today's Extremes

State Highs State Lows

Community

WunderPhotos

Upload Photos

1,757,609 photos uploaded!

WunderBlogs® & News

Nearby

Snow Depth

Station Depth Elevation
No new snow has been reported.

Earthquake Activity

City Distance Mag. Time & Date
No recent earthquake activity has been reported nearby.
Minimum magnitude displayed is 2.5.

Coastal Water Temperatures

Place Temperature
No Stations Reporting

Nearby Weather Stations